Terminal Aerodrome Forecast
Issued by NWS

Home | Current Version | Previous Version | Text Only | Print | Product List | Glossary On
Versions: 1 2 3 4 5 6 7 8 9 10 11 12 13 14 15 16 17 18
000
FTAK31 PAJN 301304 AAC
TAFAJN
TAF AMD
PAJN 301304Z 3013/3112 09008KT 6SM -RA BR SCT008 BKN035 OVC045
     FM301800 13007KT P6SM VCSH BKN050
     FM310800 09005KT P6SM -RA SCT040 OVC050=

USA.gov is the U.S. government's official web portal to all federal, state and local government web resources and services.